Time;durP1;ratioP1;P1;durP2;ratioP2;P2;SDS_P1;SDS_P2;PMS_P1;PMS_P2;Temp;Humidity;BMP_temperature;BMP_pressure;BME280_temperature;BME280_humidity;BME280_pressure;Samples;Min_cycle;Max_cycle;Signal;HPM_P1;HPM_P2
2023/04/30 00:02:06;;;;;;;5.72;4.55;;;;;;;;;;5280464;28;20020;-75
2023/04/30 00:04:37;;;;;;;7.13;6.07;;;;;;;;;;5280746;28;20391;-75
2023/04/30 00:07:08;;;;;;;10.74;7.98;;;;;;;;;;5281359;28;20463;-75
2023/04/30 00:09:39;;;;;;;9.80;7.10;;;;;;;;;;5280124;28;20471;-75
2023/04/30 00:12:11;;;;;;;8.30;6.28;;;;;;;;;;5281583;28;20013;-75
2023/04/30 00:14:42;;;;;;;8.15;6.88;;;;;;;;;;5280730;28;20020;-75
2023/04/30 00:17:13;;;;;;;8.93;7.43;;;;;;;;;;5280432;28;20020;-75
2023/04/30 00:19:44;;;;;;;8.93;7.07;;;;;;;;;;5280659;28;20028;-75
2023/04/30 00:22:15;;;;;;;8.90;7.13;;;;;;;;;;5281134;28;20478;-75
2023/04/30 00:24:47;;;;;;;10.60;7.43;;;;;;;;;;5280295;28;20024;-75
2023/04/30 00:27:18;;;;;;;10.85;8.77;;;;;;;;;;5281283;28;20099;-75
2023/04/30 00:29:49;;;;;;;10.55;7.97;;;;;;;;;;5279774;28;20498;-73
2023/04/30 00:32:20;;;;;;;9.88;7.47;;;;;;;;;;5283895;28;20065;-73
2023/04/30 00:34:51;;;;;;;8.25;6.20;;;;;;;;;;5284531;28;20070;-73
2023/04/30 00:37:23;;;;;;;8.00;6.25;;;;;;;;;;5284503;28;20478;-73
2023/04/30 00:39:54;;;;;;;6.88;5.28;;;;;;;;;;5284453;28;20300;-73
2023/04/30 00:42:25;;;;;;;7.40;4.85;;;;;;;;;;5285161;28;20084;-74
2023/04/30 00:44:56;;;;;;;7.58;4.90;;;;;;;;;;5283901;28;20039;-74
2023/04/30 00:47:27;;;;;;;6.10;5.18;;;;;;;;;;5285146;28;20074;-74
2023/04/30 00:49:58;;;;;;;5.95;5.35;;;;;;;;;;5284196;28;20024;-74
2023/04/30 00:52:30;;;;;;;8.35;6.25;;;;;;;;;;5283987;28;20459;-74
2023/04/30 00:55:01;;;;;;;10.35;6.82;;;;;;;;;;5284827;28;20510;-75
2023/04/30 00:57:33;;;;;;;8.50;6.45;;;;;;;;;;5284344;28;20021;-74
2023/04/30 01:00:05;;;;;;;7.75;5.78;;;;;;;;;;5285200;28;20023;-74
2023/04/30 01:02:36;;;;;;;10.15;6.72;;;;;;;;;;5285000;28;20017;-74
2023/04/30 01:05:08;;;;;;;14.20;6.28;;;;;;;;;;5283967;28;20031;-74
2023/04/30 01:07:43;;;;;;;6.72;5.70;;;;;;;;;;5284148;28;20027;-74
2023/04/30 01:10:15;;;;;;;8.48;5.90;;;;;;;;;;5284813;28;20009;-75
2023/04/30 01:12:55;;;;;;;6.93;5.40;;;;;;;;;;5283349;28;20028;-74
2023/04/30 01:15:28;;;;;;;6.55;5.63;;;;;;;;;;5284555;28;20067;-74
2023/04/30 01:18:21;;;;;;;10.18;6.55;;;;;;;;;;5284178;28;20112;-74
2023/04/30 01:20:53;;;;;;;5.38;4.72;;;;;;;;;;5283336;28;20016;-75
2023/04/30 01:23:30;;;;;;;6.97;5.82;;;;;;;;;;5284710;28;20021;-75
2023/04/30 01:26:37;;;;;;;7.45;5.57;;;;;;;;;;5283287;28;20068;-74
2023/04/30 01:29:11;;;;;;;9.68;6.50;;;;;;;;;;5240557;28;20064;-75
2023/04/30 01:31:42;;;;;;;8.38;6.70;;;;;;;;;;5277355;28;20043;-75
2023/04/30 01:34:13;;;;;;;8.13;5.90;;;;;;;;;;5283359;28;20115;-74
2023/04/30 01:37:14;;;;;;;9.90;6.50;;;;;;;;;;5283538;28;20409;-75
2023/04/30 01:39:57;;;;;;;8.45;6.00;;;;;;;;;;5273691;28;20020;-74
2023/04/30 01:42:34;;;;;;;7.70;6.30;;;;;;;;;;5284070;28;20031;-74
2023/04/30 01:45:17;;;;;;;10.30;6.18;;;;;;;;;;5283271;28;20414;-74
2023/04/30 01:47:55;;;;;;;11.02;6.70;;;;;;;;;;5282954;28;20131;-74
2023/04/30 01:50:46;;;;;;;8.60;7.20;;;;;;;;;;5284026;28;20514;-74
2023/04/30 01:53:20;;;;;;;8.85;7.03;;;;;;;;;;5283810;28;20467;-74
2023/04/30 01:55:58;;;;;;;8.02;6.28;;;;;;;;;;5282451;28;20025;-74
2023/04/30 01:58:30;;;;;;;7.28;5.53;;;;;;;;;;5283690;28;20430;-75
2023/04/30 02:01:02;;;;;;;7.93;7.03;;;;;;;;;;5282717;28;20111;-74
2023/04/30 02:03:33;;;;;;;9.85;7.55;;;;;;;;;;5283393;28;20021;-74
2023/04/30 02:06:04;;;;;;;9.38;7.25;;;;;;;;;;5283560;28;20102;-74
2023/04/30 02:08:35;;;;;;;9.82;7.40;;;;;;;;;;5282729;28;20028;-74
2023/04/30 02:11:06;;;;;;;11.94;8.24;;;;;;;;;;5283435;28;20029;-75
2023/04/30 02:13:38;;;;;;;10.42;7.12;;;;;;;;;;5283358;28;20014;-75
2023/04/30 02:16:09;;;;;;;10.63;7.00;;;;;;;;;;5282803;28;20020;-74
2023/04/30 02:18:41;;;;;;;10.82;7.88;;;;;;;;;;5282946;28;20008;-73
2023/04/30 02:21:13;;;;;;;11.52;7.90;;;;;;;;;;5283477;28;20025;-73
2023/04/30 02:23:44;;;;;;;10.45;6.93;;;;;;;;;;5281872;28;20012;-74
2023/04/30 02:26:15;;;;;;;8.25;7.20;;;;;;;;;;5283206;28;20047;-74
2023/04/30 02:28:46;;;;;;;8.50;6.85;;;;;;;;;;5282859;28;20013;-74
2023/04/30 02:31:18;;;;;;;7.15;6.45;;;;;;;;;;5282737;28;20021;-74
2023/04/30 02:33:49;;;;;;;9.75;7.07;;;;;;;;;;5282685;28;20027;-74
2023/04/30 02:36:20;;;;;;;9.50;7.96;;;;;;;;;;5282563;28;20025;-74
2023/04/30 02:38:51;;;;;;;8.50;6.75;;;;;;;;;;5282770;28;20096;-74
2023/04/30 02:41:22;;;;;;;8.10;7.15;;;;;;;;;;5283588;28;20036;-75
2023/04/30 02:43:54;;;;;;;10.43;7.50;;;;;;;;;;5281983;28;20116;-74
2023/04/30 02:46:25;;;;;;;9.00;7.03;;;;;;;;;;5283017;28;20036;-74
2023/04/30 02:48:56;;;;;;;12.60;6.82;;;;;;;;;;5282243;28;20385;-74
2023/04/30 02:51:27;;;;;;;9.10;6.65;;;;;;;;;;5281664;28;20035;-74
2023/04/30 02:53:58;;;;;;;7.65;6.38;;;;;;;;;;5281930;28;20051;-74
2023/04/30 02:56:30;;;;;;;8.32;6.70;;;;;;;;;;5281568;28;20025;-74
2023/04/30 02:59:01;;;;;;;7.78;6.95;;;;;;;;;;5281328;28;20025;-74
2023/04/30 03:01:32;;;;;;;8.40;6.05;;;;;;;;;;5282215;28;20442;-75
2023/04/30 03:04:04;;;;;;;8.13;6.40;;;;;;;;;;5281700;28;20351;-74
2023/04/30 03:06:35;;;;;;;8.75;7.07;;;;;;;;;;5281607;28;20501;-74
2023/04/30 03:09:06;;;;;;;7.93;7.00;;;;;;;;;;5281940;28;20051;-74
2023/04/30 03:11:37;;;;;;;9.35;7.05;;;;;;;;;;5280857;28;20078;-74
2023/04/30 03:14:09;;;;;;;7.53;6.60;;;;;;;;;;5282028;28;20027;-74
2023/04/30 03:16:40;;;;;;;8.82;7.10;;;;;;;;;;5281503;28;20017;-75
2023/04/30 03:19:11;;;;;;;8.45;7.15;;;;;;;;;;5281313;28;20020;-74
2023/04/30 03:21:42;;;;;;;8.18;7.05;;;;;;;;;;5281397;28;20047;-74
2023/04/30 03:24:13;;;;;;;10.07;7.10;;;;;;;;;;5282067;28;20036;-74
2023/04/30 03:26:45;;;;;;;8.95;6.93;;;;;;;;;;5280749;28;20082;-74
2023/04/30 03:29:16;;;;;;;9.93;7.65;;;;;;;;;;5282274;28;20451;-74
2023/04/30 03:31:47;;;;;;;11.26;7.64;;;;;;;;;;5281722;28;20051;-74
2023/04/30 03:34:19;;;;;;;9.57;7.03;;;;;;;;;;5281101;28;20023;-74
2023/04/30 03:36:50;;;;;;;11.95;8.00;;;;;;;;;;5281064;28;20463;-74
2023/04/30 03:39:21;;;;;;;8.25;7.13;;;;;;;;;;5280928;28;20426;-74
2023/04/30 03:41:52;;;;;;;8.23;7.07;;;;;;;;;;5281270;28;20029;-74
2023/04/30 03:44:23;;;;;;;10.82;8.13;;;;;;;;;;5281779;28;20100;-74
2023/04/30 03:46:54;;;;;;;10.18;8.43;;;;;;;;;;5280548;28;20275;-74
2023/04/30 03:49:25;;;;;;;9.75;7.97;;;;;;;;;;5281725;28;20023;-74
2023/04/30 03:51:57;;;;;;;10.45;9.18;;;;;;;;;;5281003;28;20109;-74
2023/04/30 03:54:28;;;;;;;9.32;7.95;;;;;;;;;;5280702;28;20064;-74
2023/04/30 03:57:00;;;;;;;9.13;8.20;;;;;;;;;;5281029;28;20070;-74
2023/04/30 03:59:31;;;;;;;10.10;8.45;;;;;;;;;;5281247;28;20472;-75
2023/04/30 04:02:03;;;;;;;11.48;8.93;;;;;;;;;;5280290;28;20081;-74
2023/04/30 04:04:34;;;;;;;9.85;8.88;;;;;;;;;;5280884;28;20029;-74
2023/04/30 04:07:06;;;;;;;10.63;9.27;;;;;;;;;;5280730;28;20582;-75
2023/04/30 04:09:38;;;;;;;9.40;7.95;;;;;;;;;;5279688;28;20005;-74
2023/04/30 04:12:09;;;;;;;12.70;9.40;;;;;;;;;;5281298;28;20336;-74
2023/04/30 04:14:40;;;;;;;13.60;10.15;;;;;;;;;;5279678;28;20098;-74
2023/04/30 04:17:11;;;;;;;12.05;9.35;;;;;;;;;;5281276;28;20479;-74
2023/04/30 04:19:42;;;;;;;10.50;8.65;;;;;;;;;;5280728;28;20137;-75
2023/04/30 04:22:14;;;;;;;11.55;9.90;;;;;;;;;;5280464;28;20027;-75
2023/04/30 04:24:46;;;;;;;12.88;9.90;;;;;;;;;;5281009;28;20490;-75
2023/04/30 04:27:19;;;;;;;11.45;9.40;;;;;;;;;;5281476;28;20019;-75
2023/04/30 04:29:50;;;;;;;10.57;9.10;;;;;;;;;;5280125;28;20083;-74
2023/04/30 04:32:22;;;;;;;11.73;9.30;;;;;;;;;;5281800;28;20044;-75
2023/04/30 04:34:54;;;;;;;9.30;8.43;;;;;;;;;;5280656;28;20021;-74
2023/04/30 04:37:26;;;;;;;12.02;9.57;;;;;;;;;;5280359;28;20482;-74
2023/04/30 04:39:57;;;;;;;14.43;10.52;;;;;;;;;;5280289;28;20025;-75
2023/04/30 04:42:28;;;;;;;11.85;9.15;;;;;;;;;;5281262;28;20439;-74
2023/04/30 04:44:59;;;;;;;11.75;9.65;;;;;;;;;;5279720;28;20032;-74
2023/04/30 04:47:31;;;;;;;13.88;12.13;;;;;;;;;;5280927;28;20119;-75
2023/04/30 04:50:03;;;;;;;13.13;10.38;;;;;;;;;;5279966;28;20024;-74
2023/04/30 04:52:34;;;;;;;11.18;9.75;;;;;;;;;;5280943;28;20024;-75
2023/04/30 04:55:06;;;;;;;12.90;9.32;;;;;;;;;;5280603;28;20049;-75
2023/04/30 04:57:37;;;;;;;11.02;9.10;;;;;;;;;;5279801;28;20021;-75
2023/04/30 05:00:09;;;;;;;10.82;9.55;;;;;;;;;;5280952;28;20047;-74
2023/04/30 05:02:41;;;;;;;9.55;8.57;;;;;;;;;;5280189;28;20107;-75
2023/04/30 05:05:12;;;;;;;10.25;9.15;;;;;;;;;;5280215;28;20089;-75
2023/04/30 05:07:43;;;;;;;10.38;9.02;;;;;;;;;;5280022;28;20028;-75
2023/04/30 05:10:15;;;;;;;12.68;10.45;;;;;;;;;;5280847;28;20016;-75
2023/04/30 05:12:46;;;;;;;10.82;9.73;;;;;;;;;;5279197;28;20040;-75
2023/04/30 05:15:17;;;;;;;11.43;10.18;;;;;;;;;;5280653;28;20352;-75
2023/04/30 05:17:48;;;;;;;14.30;10.70;;;;;;;;;;5279476;28;20029;-75
2023/04/30 05:20:19;;;;;;;14.80;10.32;;;;;;;;;;5284256;28;20074;-74
2023/04/30 05:22:51;;;;;;;10.77;9.68;;;;;;;;;;5283730;28;20384;-76
2023/04/30 05:25:22;;;;;;;10.52;9.02;;;;;;;;;;5283364;28;20036;-75
2023/04/30 05:27:55;;;;;;;11.15;10.07;;;;;;;;;;5283472;28;20061;-75
2023/04/30 05:30:26;;;;;;;10.30;9.27;;;;;;;;;;5284292;28;20024;-74
2023/04/30 05:32:57;;;;;;;12.93;9.48;;;;;;;;;;5283271;28;20016;-75
2023/04/30 05:35:29;;;;;;;10.57;9.48;;;;;;;;;;5284763;28;20020;-75
2023/04/30 05:38:01;;;;;;;10.43;9.43;;;;;;;;;;5283887;28;20024;-74
2023/04/30 05:40:33;;;;;;;14.02;10.32;;;;;;;;;;5283135;28;20013;-75
2023/04/30 05:43:04;;;;;;;10.32;9.32;;;;;;;;;;5283588;28;20039;-75
2023/04/30 05:45:35;;;;;;;10.63;9.52;;;;;;;;;;5283502;28;20471;-75
2023/04/30 05:48:06;;;;;;;10.57;9.05;;;;;;;;;;5282801;28;20096;-75
2023/04/30 05:50:37;;;;;;;12.70;9.38;;;;;;;;;;5283477;28;20407;-75
2023/04/30 05:53:09;;;;;;;10.80;9.70;;;;;;;;;;5282707;28;20008;-75
2023/04/30 05:55:40;;;;;;;10.60;8.55;;;;;;;;;;5282754;28;20502;-75
2023/04/30 05:58:11;;;;;;;10.10;8.63;;;;;;;;;;5283638;28;20020;-75
2023/04/30 06:00:42;;;;;;;8.27;7.32;;;;;;;;;;5282089;28;20046;-76
2023/04/30 06:03:13;;;;;;;8.15;7.40;;;;;;;;;;5283487;28;20016;-75
2023/04/30 06:05:47;;;;;;;8.73;6.10;;;;;;;;;;5282859;28;20037;-76
2023/04/30 06:08:18;;;;;;;6.78;6.10;;;;;;;;;;5282768;28;20012;-75
2023/04/30 06:10:50;;;;;;;7.14;6.20;;;;;;;;;;5282834;28;20027;-75
2023/04/30 06:13:21;;;;;;;6.55;5.72;;;;;;;;;;5283148;28;20023;-75
2023/04/30 06:15:52;;;;;;;8.48;6.20;;;;;;;;;;5281802;28;20459;-75
2023/04/30 06:18:23;;;;;;;7.45;6.25;;;;;;;;;;5283518;28;20096;-76
2023/04/30 06:20:55;;;;;;;6.66;5.96;;;;;;;;;;5282829;28;20052;-76
2023/04/30 06:23:26;;;;;;;7.78;6.28;;;;;;;;;;5281993;28;20016;-76
2023/04/30 06:25:57;;;;;;;8.80;6.18;;;;;;;;;;5282590;28;20040;-75
2023/04/30 06:28:28;;;;;;;7.28;6.68;;;;;;;;;;5282749;28;20013;-75
2023/04/30 06:30:59;;;;;;;8.70;7.05;;;;;;;;;;5282739;28;20051;-76
2023/04/30 06:33:30;;;;;;;6.75;6.00;;;;;;;;;;5282924;28;20066;-75
2023/04/30 06:36:02;;;;;;;7.78;6.88;;;;;;;;;;5281985;28;20055;-74
2023/04/30 06:38:33;;;;;;;6.75;5.53;;;;;;;;;;5282598;28;20017;-75
2023/04/30 06:41:04;;;;;;;7.90;6.30;;;;;;;;;;5283029;28;20335;-75
2023/04/30 06:43:35;;;;;;;7.03;6.22;;;;;;;;;;5281930;28;20104;-73
2023/04/30 06:46:06;;;;;;;9.43;7.38;;;;;;;;;;5282488;28;20391;-74
2023/04/30 06:48:38;;;;;;;6.90;5.82;;;;;;;;;;5282435;28;20016;-74
2023/04/30 06:51:09;;;;;;;7.22;6.10;;;;;;;;;;5282013;28;20027;-75
2023/04/30 06:53:40;;;;;;;7.38;5.90;;;;;;;;;;5282198;28;20043;-76
2023/04/30 06:56:12;;;;;;;7.28;6.35;;;;;;;;;;5282446;28;20024;-76
2023/04/30 06:58:43;;;;;;;6.05;5.47;;;;;;;;;;5281974;28;20056;-76
2023/04/30 07:01:15;;;;;;;6.03;5.43;;;;;;;;;;5282718;28;20020;-76
2023/04/30 07:03:46;;;;;;;6.93;6.10;;;;;;;;;;5281198;28;20024;-74
2023/04/30 07:06:18;;;;;;;6.43;5.75;;;;;;;;;;5282264;28;20085;-74
2023/04/30 07:08:49;;;;;;;7.90;5.68;;;;;;;;;;5281427;28;20314;-74
2023/04/30 07:11:20;;;;;;;6.30;5.55;;;;;;;;;;5281132;28;20040;-75
2023/04/30 07:13:52;;;;;;;7.63;6.10;;;;;;;;;;5280566;28;20073;-74
2023/04/30 07:16:24;;;;;;;8.50;5.28;;;;;;;;;;5281864;28;20027;-76
2023/04/30 07:18:55;;;;;;;5.38;4.75;;;;;;;;;;5279389;28;20103;-75
2023/04/30 07:21:26;;;;;;;5.43;4.65;;;;;;;;;;5281881;28;20032;-75
2023/04/30 07:23:57;;;;;;;8.38;5.28;;;;;;;;;;5281074;28;20286;-75
2023/04/30 07:26:29;;;;;;;7.35;6.18;;;;;;;;;;5280836;28;20056;-75
2023/04/30 07:29:00;;;;;;;5.80;5.30;;;;;;;;;;5281175;28;20020;-75
2023/04/30 07:31:33;;;;;;;6.38;4.65;;;;;;;;;;5280795;28;20095;-75
2023/04/30 07:34:04;;;;;;;5.38;4.88;;;;;;;;;;5281723;28;20095;-75
2023/04/30 07:36:37;;;;;;;10.48;6.05;;;;;;;;;;5281756;28;20092;-75
2023/04/30 07:39:10;;;;;;;6.20;4.93;;;;;;;;;;5281117;28;20471;-75
2023/04/30 07:41:42;;;;;;;5.93;5.22;;;;;;;;;;5280558;28;20035;-75
2023/04/30 07:44:13;;;;;;;7.70;5.60;;;;;;;;;;5281672;28;20016;-75
2023/04/30 07:46:44;;;;;;;5.85;5.25;;;;;;;;;;5279923;28;20024;-74
2023/04/30 07:49:15;;;;;;;6.97;5.18;;;;;;;;;;5281110;28;20108;-75
2023/04/30 07:51:46;;;;;;;6.83;5.33;;;;;;;;;;5280922;28;20020;-75
2023/04/30 07:54:17;;;;;;;8.18;6.47;;;;;;;;;;5280109;28;20887;-74
2023/04/30 07:56:49;;;;;;;5.68;4.82;;;;;;;;;;5280704;28;20052;-74
2023/04/30 07:59:20;;;;;;;8.32;4.95;;;;;;;;;;5281444;28;20364;-74
2023/04/30 08:01:51;;;;;;;6.55;4.90;;;;;;;;;;5279850;28;20154;-75
2023/04/30 08:04:22;;;;;;;7.05;5.03;;;;;;;;;;5281292;28;20027;-75
2023/04/30 08:06:54;;;;;;;5.00;3.95;;;;;;;;;;5280070;28;20355;-75
2023/04/30 08:09:25;;;;;;;5.10;4.23;;;;;;;;;;5281280;28;20032;-75
2023/04/30 08:11:56;;;;;;;5.13;4.63;;;;;;;;;;5280646;28;20267;-74
2023/04/30 08:14:27;;;;;;;4.77;3.93;;;;;;;;;;5280398;28;20380;-74
2023/04/30 08:16:59;;;;;;;5.70;4.20;;;;;;;;;;5280657;28;20273;-75
2023/04/30 08:19:31;;;;;;;5.72;4.70;;;;;;;;;;5280908;28;20380;-75
2023/04/30 08:22:02;;;;;;;5.80;5.15;;;;;;;;;;5280674;28;20100;-74
2023/04/30 08:24:33;;;;;;;4.73;4.33;;;;;;;;;;5281038;28;20027;-74
2023/04/30 08:27:05;;;;;;;4.65;3.88;;;;;;;;;;5281400;28;20270;-74
2023/04/30 08:29:36;;;;;;;5.03;4.32;;;;;;;;;;5280748;28;20099;-75
2023/04/30 08:32:08;;;;;;;5.37;3.87;;;;;;;;;;5280830;28;20070;-75
2023/04/30 08:34:39;;;;;;;5.93;4.15;;;;;;;;;;5279893;28;20265;-76
2023/04/30 08:37:10;;;;;;;5.10;4.13;;;;;;;;;;5280756;28;20043;-76
2023/04/30 08:39:42;;;;;;;5.80;4.13;;;;;;;;;;5278809;28;20032;-75
2023/04/30 08:42:14;;;;;;;4.43;3.60;;;;;;;;;;5278807;28;20355;-75
2023/04/30 08:44:46;;;;;;;6.22;3.95;;;;;;;;;;5279744;28;20275;-74
2023/04/30 08:47:18;;;;;;;5.95;3.70;;;;;;;;;;5280645;28;20112;-75
2023/04/30 08:49:50;;;;;;;4.35;3.25;;;;;;;;;;5279000;28;20033;-75
2023/04/30 08:52:21;;;;;;;3.95;3.33;;;;;;;;;;5280965;28;20429;-75
2023/04/30 08:54:53;;;;;;;3.30;2.30;;;;;;;;;;5283067;28;20087;-75
2023/04/30 08:57:25;;;;;;;5.65;3.63;;;;;;;;;;5283937;28;20271;-75
2023/04/30 08:59:56;;;;;;;8.68;3.50;;;;;;;;;;5283369;28;20028;-75
2023/04/30 09:02:27;;;;;;;3.53;3.10;;;;;;;;;;5284514;28;20020;-75
2023/04/30 09:04:58;;;;;;;5.57;3.57;;;;;;;;;;5283079;28;20056;-75
2023/04/30 09:07:32;;;;;;;4.00;2.93;;;;;;;;;;5284281;28;20283;-74
2023/04/30 09:10:03;;;;;;;5.28;2.53;;;;;;;;;;5283417;28;20328;-76
2023/04/30 09:12:35;;;;;;;3.47;3.13;;;;;;;;;;5283969;28;20012;-76
2023/04/30 09:15:07;;;;;;;3.40;2.80;;;;;;;;;;5284574;28;20016;-76
2023/04/30 09:17:39;;;;;;;4.35;2.70;;;;;;;;;;5283313;28;20051;-72
2023/04/30 09:20:11;;;;;;;2.70;2.40;;;;;;;;;;5284865;28;20391;-74
2023/04/30 09:22:42;;;;;;;4.97;3.15;;;;;;;;;;5283924;28;20040;-74
2023/04/30 09:25:13;;;;;;;2.95;2.03;;;;;;;;;;5283178;28;20067;-74
2023/04/30 09:27:45;;;;;;;3.73;2.97;;;;;;;;;;5283666;28;20009;-74
2023/04/30 09:30:32;;;;;;;3.27;2.23;;;;;;;;;;5284640;28;20027;-73
2023/04/30 09:33:03;;;;;;;3.00;2.67;;;;;;;;;;5283390;28;20267;-74
2023/04/30 09:35:36;;;;;;;3.70;2.85;;;;;;;;;;5283382;28;20056;-74
2023/04/30 09:38:07;;;;;;;3.70;3.05;;;;;;;;;;5280670;28;20092;-74
2023/04/30 09:40:39;;;;;;;4.70;3.65;;;;;;;;;;5281000;28;20542;-74
2023/04/30 09:43:10;;;;;;;4.15;2.67;;;;;;;;;;5281373;28;20114;-73
2023/04/30 09:45:47;;;;;;;3.33;2.90;;;;;;;;;;5280244;28;20043;-74
2023/04/30 09:48:22;;;;;;;3.58;3.28;;;;;;;;;;5281707;28;20429;-74
2023/04/30 09:50:53;;;;;;;2.95;2.47;;;;;;;;;;5282380;28;20013;-73
2023/04/30 09:53:25;;;;;;;3.63;2.20;;;;;;;;;;5283032;28;20017;-74
2023/04/30 09:55:57;;;;;;;3.15;2.50;;;;;;;;;;5283147;28;20750;-73
2023/04/30 09:58:29;;;;;;;3.78;2.83;;;;;;;;;;5283498;28;20093;-73
2023/04/30 10:01:02;;;;;;;2.67;1.80;;;;;;;;;;5282807;28;20021;-73
2023/04/30 10:03:34;;;;;;;2.67;2.03;;;;;;;;;;5283711;28;20021;-73
2023/04/30 10:06:06;;;;;;;2.10;1.10;;;;;;;;;;5282598;28;20029;-73
2023/04/30 10:08:48;;;;;;;3.28;2.13;;;;;;;;;;5283392;28;20099;-73
2023/04/30 10:11:20;;;;;;;3.28;2.03;;;;;;;;;;5283607;28;20428;-72
2023/04/30 10:14:00;;;;;;;5.43;2.47;;;;;;;;;;5282583;28;20095;-74
2023/04/30 10:16:52;;;;;;;3.10;2.08;;;;;;;;;;5283545;28;20023;-74
2023/04/30 10:19:24;;;;;;;3.20;2.47;;;;;;;;;;5278835;28;20043;-73
2023/04/30 10:21:55;;;;;;;3.75;2.72;;;;;;;;;;5281685;28;20031;-74
2023/04/30 10:24:26;;;;;;;4.22;3.20;;;;;;;;;;5283085;28;20367;-73
2023/04/30 10:26:58;;;;;;;3.30;3.00;;;;;;;;;;5282247;28;20029;-73
2023/04/30 10:29:30;;;;;;;3.95;3.38;;;;;;;;;;5281053;28;20267;-73
2023/04/30 10:32:03;;;;;;;3.33;2.70;;;;;;;;;;5282309;28;20356;-73
2023/04/30 10:34:41;;;;;;;5.20;3.00;;;;;;;;;;5281793;28;20024;-73
2023/04/30 10:37:17;;;;;;;3.58;2.83;;;;;;;;;;5282605;28;20489;-74
2023/04/30 10:39:49;;;;;;;3.47;3.17;;;;;;;;;;5281921;28;20021;-73
2023/04/30 10:42:21;;;;;;;5.40;3.45;;;;;;;;;;5282057;28;20028;-75
2023/04/30 10:44:55;;;;;;;3.90;3.45;;;;;;;;;;5281615;28;20384;-72
2023/04/30 10:47:27;;;;;;;3.78;3.20;;;;;;;;;;5282602;28;20427;-73
2023/04/30 10:50:03;;;;;;;2.90;2.70;;;;;;;;;;5281153;28;20067;-73
2023/04/30 10:52:36;;;;;;;3.92;3.55;;;;;;;;;;5282067;28;20062;-73
2023/04/30 10:55:08;;;;;;;3.55;2.47;;;;;;;;;;5281821;28;20465;-73
2023/04/30 10:57:41;;;;;;;4.18;3.03;;;;;;;;;;5281043;28;20047;-73
2023/04/30 11:00:19;;;;;;;3.72;3.40;;;;;;;;;;5282350;28;20013;-73
2023/04/30 11:02:54;;;;;;;1.98;1.75;;;;;;;;;;5280901;28;20017;-73
2023/04/30 11:05:36;;;;;;;3.25;1.98;;;;;;;;;;5282551;28;20032;-73
2023/04/30 11:08:10;;;;;;;4.47;1.77;;;;;;;;;;5282209;28;20016;-73
2023/04/30 11:10:55;;;;;;;2.40;1.70;;;;;;;;;;5281267;28;20016;-73
2023/04/30 11:13:27;;;;;;;2.60;1.80;;;;;;;;;;5282361;28;20044;-73
2023/04/30 11:16:01;;;;;;;3.38;1.95;;;;;;;;;;5281367;28;20483;-73
2023/04/30 11:18:32;;;;;;;2.42;1.83;;;;;;;;;;5281522;28;20021;-73
2023/04/30 11:21:03;;;;;;;2.95;2.03;;;;;;;;;;5282005;28;20066;-73
2023/04/30 11:23:35;;;;;;;2.92;1.60;;;;;;;;;;5281151;28;20044;-72
2023/04/30 11:26:06;;;;;;;5.40;1.88;;;;;;;;;;5281412;28;20029;-73
2023/04/30 11:28:38;;;;;;;3.92;1.80;;;;;;;;;;5281564;28;20058;-73
2023/04/30 11:31:09;;;;;;;2.78;2.33;;;;;;;;;;5281268;28;20028;-73
2023/04/30 11:33:40;;;;;;;2.95;1.40;;;;;;;;;;5281480;28;20028;-73
2023/04/30 11:36:13;;;;;;;3.47;1.77;;;;;;;;;;5282073;28;20039;-72
2023/04/30 11:38:44;;;;;;;2.47;1.48;;;;;;;;;;5280628;28;20262;-72
2023/04/30 11:41:15;;;;;;;2.72;1.70;;;;;;;;;;5281599;28;20027;-72
2023/04/30 11:43:47;;;;;;;2.45;1.38;;;;;;;;;;5281163;28;20478;-72
2023/04/30 11:46:18;;;;;;;1.52;0.90;;;;;;;;;;5281010;28;20028;-72
2023/04/30 11:48:49;;;;;;;2.22;1.10;;;;;;;;;;5280962;28;20384;-71
2023/04/30 11:51:23;;;;;;;1.80;0.90;;;;;;;;;;5282186;28;20025;-72
2023/04/30 11:53:56;;;;;;;1.90;1.02;;;;;;;;;;5279835;28;20135;-72
2023/04/30 11:56:27;;;;;;;2.03;1.00;;;;;;;;;;5281582;28;20060;-72
2023/04/30 11:58:58;;;;;;;1.83;0.97;;;;;;;;;;5279881;28;20044;-72
2023/04/30 12:01:29;;;;;;;1.77;1.03;;;;;;;;;;5281109;28;20320;-72
2023/04/30 12:04:02;;;;;;;2.53;0.93;;;;;;;;;;5281358;28;20265;-72
2023/04/30 12:06:34;;;;;;;2.33;1.02;;;;;;;;;;5280513;28;20033;-72
2023/04/30 12:09:07;;;;;;;1.55;0.63;;;;;;;;;;5278678;28;20023;-72
2023/04/30 12:11:39;;;;;;;2.67;1.20;;;;;;;;;;5278393;28;20013;-72
2023/04/30 12:14:11;;;;;;;1.70;0.80;;;;;;;;;;5278101;28;20591;-72
2023/04/30 12:16:44;;;;;;;2.28;1.05;;;;;;;;;;5278594;28;20391;-72
2023/04/30 12:19:19;;;;;;;1.63;0.77;;;;;;;;;;5279440;28;20439;-72
2023/04/30 12:21:53;;;;;;;2.28;1.00;;;;;;;;;;5278020;28;20016;-72
2023/04/30 12:24:25;;;;;;;1.65;0.88;;;;;;;;;;5281194;28;20025;-72
2023/04/30 12:26:58;;;;;;;2.28;0.88;;;;;;;;;;5279820;28;20077;-72
2023/04/30 12:29:29;;;;;;;2.55;0.98;;;;;;;;;;5285182;28;20016;-71
2023/04/30 12:32:00;;;;;;;1.60;0.88;;;;;;;;;;5285159;28;20069;-72
2023/04/30 12:34:31;;;;;;;2.23;1.00;;;;;;;;;;5284333;28;20262;-72
2023/04/30 12:37:03;;;;;;;1.93;0.87;;;;;;;;;;5284844;28;20270;-72
2023/04/30 12:39:34;;;;;;;1.93;0.73;;;;;;;;;;5284976;28;20351;-71
2023/04/30 12:42:06;;;;;;;1.55;0.90;;;;;;;;;;5284564;28;20267;-71
2023/04/30 12:44:43;;;;;;;1.13;0.73;;;;;;;;;;5284918;28;20023;-72
2023/04/30 12:47:15;;;;;;;1.80;0.90;;;;;;;;;;5285311;28;20025;-71
2023/04/30 12:49:46;;;;;;;0.90;0.60;;;;;;;;;;5283967;28;20482;-72
2023/04/30 12:52:21;;;;;;;2.07;0.70;;;;;;;;;;5285016;28;20019;-72
2023/04/30 12:54:54;;;;;;;0.90;0.60;;;;;;;;;;5283519;28;20287;-72
2023/04/30 12:57:25;;;;;;;1.60;0.77;;;;;;;;;;5284962;28;20025;-71
2023/04/30 12:59:58;;;;;;;1.67;0.70;;;;;;;;;;5284264;28;20035;-72
2023/04/30 13:02:32;;;;;;;2.13;0.77;;;;;;;;;;5283882;28;20290;-72
2023/04/30 13:05:03;;;;;;;1.90;0.68;;;;;;;;;;5283778;28;20025;-69
2023/04/30 13:07:38;;;;;;;0.98;0.60;;;;;;;;;;5283923;28;20035;-70
2023/04/30 13:10:10;;;;;;;1.65;0.70;;;;;;;;;;5284007;28;20025;-69
2023/04/30 13:12:41;;;;;;;1.30;0.70;;;;;;;;;;5284336;28;20344;-70
2023/04/30 13:15:12;;;;;;;1.37;0.60;;;;;;;;;;5284657;28;20017;-69
2023/04/30 13:17:44;;;;;;;1.60;0.70;;;;;;;;;;5282947;28;20381;-71
2023/04/30 13:20:15;;;;;;;1.40;0.68;;;;;;;;;;5284471;28;20807;-69
2023/04/30 13:22:46;;;;;;;1.05;0.60;;;;;;;;;;5283733;28;20035;-69
2023/04/30 13:25:18;;;;;;;3.03;0.83;;;;;;;;;;5283472;28;20024;-70
2023/04/30 13:27:50;;;;;;;1.65;0.80;;;;;;;;;;5266368;28;20366;-69
2023/04/30 13:30:22;;;;;;;1.27;0.80;;;;;;;;;;5280367;28;20055;-69
2023/04/30 13:32:53;;;;;;;1.20;0.65;;;;;;;;;;5283060;28;20028;-69
2023/04/30 13:35:24;;;;;;;1.40;0.70;;;;;;;;;;5283866;28;20459;-75
2023/04/30 13:37:58;;;;;;;1.80;0.80;;;;;;;;;;5283056;28;20059;-75
2023/04/30 13:40:29;;;;;;;1.25;0.52;;;;;;;;;;5283333;28;20096;-75
2023/04/30 13:43:00;;;;;;;1.48;0.60;;;;;;;;;;5283342;28;20123;-77
2023/04/30 13:45:31;;;;;;;1.60;0.60;;;;;;;;;;5282506;28;20111;-75
2023/04/30 13:48:03;;;;;;;1.83;0.63;;;;;;;;;;5283241;28;20017;-75
2023/04/30 13:50:34;;;;;;;1.70;0.50;;;;;;;;;;5283061;28;20281;-76
2023/04/30 13:53:05;;;;;;;1.20;0.60;;;;;;;;;;5282134;27;20012;-76
2023/04/30 13:55:36;;;;;;;1.08;0.60;;;;;;;;;;5283313;28;20107;-76
2023/04/30 13:58:07;;;;;;;1.30;0.70;;;;;;;;;;5282700;28;20020;-76
2023/04/30 14:00:39;;;;;;;2.03;0.80;;;;;;;;;;5282338;28;20269;-76
2023/04/30 14:03:10;;;;;;;2.13;1.00;;;;;;;;;;5283922;28;20104;-78
2023/04/30 14:05:42;;;;;;;1.38;0.80;;;;;;;;;;5282191;28;20294;-76
2023/04/30 14:08:13;;;;;;;1.33;0.90;;;;;;;;;;5282681;28;20021;-76
2023/04/30 14:10:44;;;;;;;1.33;0.70;;;;;;;;;;5282066;28;20654;-75
2023/04/30 14:13:15;;;;;;;1.10;0.60;;;;;;;;;;5282916;28;20407;-76
2023/04/30 14:15:47;;;;;;;1.92;1.02;;;;;;;;;;5282331;28;20354;-76
2023/04/30 14:18:21;;;;;;;1.20;0.70;;;;;;;;;;5282605;28;20075;-75
2023/04/30 14:20:52;;;;;;;1.42;1.00;;;;;;;;;;5281833;28;20016;-75
2023/04/30 14:23:24;;;;;;;2.58;1.10;;;;;;;;;;5282876;28;20020;-77
2023/04/30 14:25:56;;;;;;;1.70;0.90;;;;;;;;;;5283641;28;20364;-76
2023/04/30 14:28:27;;;;;;;2.05;0.93;;;;;;;;;;5288787;28;20031;-77
2023/04/30 14:30:58;;;;;;;1.90;1.10;;;;;;;;;;5282747;28;20424;-76
2023/04/30 14:33:30;;;;;;;1.37;0.70;;;;;;;;;;5281848;28;20020;-76
2023/04/30 14:36:02;;;;;;;1.80;0.90;;;;;;;;;;5282415;28;20344;-76
2023/04/30 14:38:33;;;;;;;1.83;0.80;;;;;;;;;;5289675;28;20027;-75
2023/04/30 14:41:05;;;;;;;2.00;0.90;;;;;;;;;;5285680;28;20028;-76
2023/04/30 14:43:36;;;;;;;1.45;0.80;;;;;;;;;;5283098;28;20262;-77
2023/04/30 14:46:07;;;;;;;1.53;0.70;;;;;;;;;;5282559;28;20112;-76
2023/04/30 14:48:38;;;;;;;1.35;0.70;;;;;;;;;;5278533;28;20270;-75
2023/04/30 14:51:09;;;;;;;2.65;0.60;;;;;;;;;;5282713;28;20017;-76
2023/04/30 14:53:41;;;;;;;1.27;0.70;;;;;;;;;;5281702;28;20016;-76
2023/04/30 14:56:12;;;;;;;1.40;0.60;;;;;;;;;;5281703;28;20078;-76
2023/04/30 14:58:43;;;;;;;1.30;0.60;;;;;;;;;;5281654;28;20354;-76
2023/04/30 15:01:14;;;;;;;1.20;0.70;;;;;;;;;;5282739;28;20283;-76
2023/04/30 15:03:45;;;;;;;1.75;0.70;;;;;;;;;;5280486;28;20349;-76
2023/04/30 15:06:17;;;;;;;1.73;0.60;;;;;;;;;;5282749;28;20498;-76
2023/04/30 15:08:48;;;;;;;1.00;0.45;;;;;;;;;;5281233;28;20028;-76
2023/04/30 15:11:19;;;;;;;2.30;0.70;;;;;;;;;;5282426;28;20033;-76